sensor_id;sensor_type;location;lat;lon;timestamp;P1;durP1;ratioP1;P2;durP2;ratioP2
64903;SDS011;51401;48.882;12.598;2023-08-06T00:01:11;5.28;;;4.68;;
64903;SDS011;51401;48.882;12.598;2023-08-06T00:03:36;6.20;;;4.80;;
64903;SDS011;51401;48.882;12.598;2023-08-06T00:06:01;6.15;;;4.78;;
64903;SDS011;51401;48.882;12.598;2023-08-06T00:08:27;5.03;;;4.32;;
64903;SDS011;51401;48.882;12.598;2023-08-06T00:10:52;4.57;;;4.18;;
64903;SDS011;51401;48.882;12.598;2023-08-06T00:13:17;5.57;;;4.63;;
64903;SDS011;51401;48.882;12.598;2023-08-06T00:15:43;4.90;;;4.38;;
64903;SDS011;51401;48.882;12.598;2023-08-06T00:18:08;5.68;;;5.07;;
64903;SDS011;51401;48.882;12.598;2023-08-06T00:20:34;6.10;;;5.50;;
64903;SDS011;51401;48.882;12.598;2023-08-06T00:22:59;5.10;;;4.60;;
64903;SDS011;51401;48.882;12.598;2023-08-06T00:25:24;5.60;;;5.10;;
64903;SDS011;51401;48.882;12.598;2023-08-06T00:27:49;5.40;;;4.90;;
64903;SDS011;51401;48.882;12.598;2023-08-06T00:30:15;5.18;;;4.65;;
64903;SDS011;51401;48.882;12.598;2023-08-06T00:32:40;5.78;;;5.05;;
64903;SDS011;51401;48.882;12.598;2023-08-06T00:35:05;5.97;;;5.13;;
64903;SDS011;51401;48.882;12.598;2023-08-06T00:37:31;5.00;;;4.50;;
64903;SDS011;51401;48.882;12.598;2023-08-06T00:39:56;5.95;;;5.45;;
64903;SDS011;51401;48.882;12.598;2023-08-06T00:42:22;5.73;;;5.13;;
64903;SDS011;51401;48.882;12.598;2023-08-06T00:44:47;5.97;;;5.38;;
64903;SDS011;51401;48.882;12.598;2023-08-06T00:47:13;6.32;;;5.55;;
64903;SDS011;51401;48.882;12.598;2023-08-06T00:49:38;6.00;;;5.30;;
64903;SDS011;51401;48.882;12.598;2023-08-06T00:52:04;6.68;;;5.50;;
64903;SDS011;51401;48.882;12.598;2023-08-06T00:54:31;6.38;;;5.30;;
64903;SDS011;51401;48.882;12.598;2023-08-06T00:56:57;6.57;;;5.88;;
64903;SDS011;51401;48.882;12.598;2023-08-06T00:59:24;6.97;;;6.28;;
64903;SDS011;51401;48.882;12.598;2023-08-06T01:01:50;7.25;;;6.55;;
64903;SDS011;51401;48.882;12.598;2023-08-06T01:04:16;9.00;;;7.32;;
64903;SDS011;51401;48.882;12.598;2023-08-06T01:15:20;7.50;;;6.45;;
64903;SDS011;51401;48.882;12.598;2023-08-06T01:17:48;8.05;;;6.68;;
64903;SDS011;51401;48.882;12.598;2023-08-06T01:20:13;8.27;;;7.47;;
64903;SDS011;51401;48.882;12.598;2023-08-06T01:22:39;8.85;;;6.90;;
64903;SDS011;51401;48.882;12.598;2023-08-06T01:25:04;8.70;;;6.88;;
64903;SDS011;51401;48.882;12.598;2023-08-06T01:27:32;7.03;;;6.32;;
64903;SDS011;51401;48.882;12.598;2023-08-06T01:30:08;6.70;;;5.97;;
64903;SDS011;51401;48.882;12.598;2023-08-06T01:32:42;6.70;;;5.60;;
64903;SDS011;51401;48.882;12.598;2023-08-06T01:35:09;7.00;;;6.28;;
64903;SDS011;51401;48.882;12.598;2023-08-06T01:37:37;7.15;;;6.30;;
64903;SDS011;51401;48.882;12.598;2023-08-06T01:40:09;6.43;;;5.82;;
64903;SDS011;51401;48.882;12.598;2023-08-06T01:42:36;7.93;;;6.13;;
64903;SDS011;51401;48.882;12.598;2023-08-06T01:45:02;7.13;;;6.10;;
64903;SDS011;51401;48.882;12.598;2023-08-06T01:47:28;7.25;;;5.90;;
64903;SDS011;51401;48.882;12.598;2023-08-06T01:49:53;6.57;;;5.90;;
64903;SDS011;51401;48.882;12.598;2023-08-06T01:52:18;7.37;;;6.10;;
64903;SDS011;51401;48.882;12.598;2023-08-06T01:54:43;8.17;;;6.13;;
64903;SDS011;51401;48.882;12.598;2023-08-06T01:57:09;6.78;;;6.03;;
64903;SDS011;51401;48.882;12.598;2023-08-06T01:59:34;6.72;;;6.03;;
64903;SDS011;51401;48.882;12.598;2023-08-06T02:02:02;8.30;;;6.70;;
64903;SDS011;51401;48.882;12.598;2023-08-06T02:04:28;7.35;;;5.95;;
64903;SDS011;51401;48.882;12.598;2023-08-06T02:06:53;6.40;;;5.80;;
64903;SDS011;51401;48.882;12.598;2023-08-06T02:09:18;7.23;;;6.17;;
64903;SDS011;51401;48.882;12.598;2023-08-06T02:11:44;6.90;;;6.20;;
64903;SDS011;51401;48.882;12.598;2023-08-06T02:14:09;7.07;;;5.95;;
64903;SDS011;51401;48.882;12.598;2023-08-06T02:16:34;6.88;;;6.18;;
64903;SDS011;51401;48.882;12.598;2023-08-06T02:19:00;7.13;;;6.00;;
64903;SDS011;51401;48.882;12.598;2023-08-06T02:21:25;6.72;;;5.82;;
64903;SDS011;51401;48.882;12.598;2023-08-06T02:23:50;7.13;;;5.40;;
64903;SDS011;51401;48.882;12.598;2023-08-06T02:26:15;6.70;;;6.00;;
64903;SDS011;51401;48.882;12.598;2023-08-06T02:28:41;6.47;;;5.40;;
64903;SDS011;51401;48.882;12.598;2023-08-06T02:31:06;6.33;;;4.97;;
64903;SDS011;51401;48.882;12.598;2023-08-06T02:33:32;7.65;;;5.80;;
64903;SDS011;51401;48.882;12.598;2023-08-06T02:36:03;5.87;;;5.27;;
64903;SDS011;51401;48.882;12.598;2023-08-06T02:38:29;7.00;;;5.60;;
64903;SDS011;51401;48.882;12.598;2023-08-06T02:40:55;6.20;;;5.60;;
64903;SDS011;51401;48.882;12.598;2023-08-06T02:43:21;8.10;;;5.25;;
64903;SDS011;51401;48.882;12.598;2023-08-06T02:45:46;8.98;;;5.93;;
64903;SDS011;51401;48.882;12.598;2023-08-06T02:48:11;7.45;;;4.78;;
64903;SDS011;51401;48.882;12.598;2023-08-06T02:50:40;5.63;;;5.00;;
64903;SDS011;51401;48.882;12.598;2023-08-06T02:53:06;5.90;;;5.17;;
64903;SDS011;51401;48.882;12.598;2023-08-06T02:55:33;5.78;;;5.18;;
64903;SDS011;51401;48.882;12.598;2023-08-06T02:57:59;7.22;;;5.18;;
64903;SDS011;51401;48.882;12.598;2023-08-06T03:00:25;6.40;;;5.15;;
64903;SDS011;51401;48.882;12.598;2023-08-06T03:02:51;5.20;;;4.70;;
64903;SDS011;51401;48.882;12.598;2023-08-06T03:05:16;7.22;;;5.03;;
64903;SDS011;51401;48.882;12.598;2023-08-06T03:07:41;6.40;;;5.10;;
64903;SDS011;51401;48.882;12.598;2023-08-06T03:10:07;5.82;;;5.22;;
64903;SDS011;51401;48.882;12.598;2023-08-06T03:12:32;6.00;;;5.40;;
64903;SDS011;51401;48.882;12.598;2023-08-06T03:14:57;6.40;;;5.80;;
64903;SDS011;51401;48.882;12.598;2023-08-06T03:17:23;6.40;;;5.33;;
64903;SDS011;51401;48.882;12.598;2023-08-06T03:19:48;6.30;;;5.60;;
64903;SDS011;51401;48.882;12.598;2023-08-06T03:22:13;5.83;;;5.17;;
64903;SDS011;51401;48.882;12.598;2023-08-06T03:24:38;5.82;;;4.63;;
64903;SDS011;51401;48.882;12.598;2023-08-06T03:27:04;6.25;;;5.32;;
64903;SDS011;51401;48.882;12.598;2023-08-06T03:29:29;8.27;;;6.13;;
64903;SDS011;51401;48.882;12.598;2023-08-06T03:31:54;6.97;;;5.72;;
64903;SDS011;51401;48.882;12.598;2023-08-06T03:34:20;6.30;;;5.57;;
64903;SDS011;51401;48.882;12.598;2023-08-06T03:36:45;6.75;;;5.25;;
64903;SDS011;51401;48.882;12.598;2023-08-06T03:39:10;6.07;;;5.30;;
64903;SDS011;51401;48.882;12.598;2023-08-06T03:41:36;4.88;;;4.35;;
64903;SDS011;51401;48.882;12.598;2023-08-06T03:44:01;6.13;;;4.10;;
64903;SDS011;51401;48.882;12.598;2023-08-06T03:46:28;5.63;;;3.88;;
64903;SDS011;51401;48.882;12.598;2023-08-06T03:48:54;4.53;;;3.40;;
64903;SDS011;51401;48.882;12.598;2023-08-06T03:51:19;3.58;;;3.25;;
64903;SDS011;51401;48.882;12.598;2023-08-06T03:53:44;3.53;;;3.07;;
64903;SDS011;51401;48.882;12.598;2023-08-06T03:56:09;4.47;;;3.58;;
64903;SDS011;51401;48.882;12.598;2023-08-06T03:58:35;3.90;;;3.30;;
64903;SDS011;51401;48.882;12.598;2023-08-06T04:01:00;3.65;;;3.25;;
64903;SDS011;51401;48.882;12.598;2023-08-06T04:03:26;4.65;;;3.42;;
64903;SDS011;51401;48.882;12.598;2023-08-06T04:05:52;3.42;;;3.05;;
64903;SDS011;51401;48.882;12.598;2023-08-06T04:08:17;3.08;;;2.78;;
64903;SDS011;51401;48.882;12.598;2023-08-06T04:10:42;3.45;;;3.05;;
64903;SDS011;51401;48.882;12.598;2023-08-06T04:13:08;4.13;;;2.73;;
64903;SDS011;51401;48.882;12.598;2023-08-06T04:15:33;2.80;;;2.45;;
64903;SDS011;51401;48.882;12.598;2023-08-06T04:17:59;3.60;;;2.80;;
64903;SDS011;51401;48.882;12.598;2023-08-06T04:20:24;3.22;;;2.80;;
64903;SDS011;51401;48.882;12.598;2023-08-06T04:22:50;3.85;;;2.75;;
64903;SDS011;51401;48.882;12.598;2023-08-06T04:25:15;4.90;;;2.57;;
64903;SDS011;51401;48.882;12.598;2023-08-06T04:30:11;2.93;;;2.30;;
64903;SDS011;51401;48.882;12.598;2023-08-06T04:32:37;3.28;;;2.60;;
64903;SDS011;51401;48.882;12.598;2023-08-06T04:35:02;3.45;;;2.38;;
64903;SDS011;51401;48.882;12.598;2023-08-06T04:37:28;3.50;;;2.65;;
64903;SDS011;51401;48.882;12.598;2023-08-06T04:39:53;2.73;;;2.40;;
64903;SDS011;51401;48.882;12.598;2023-08-06T04:42:18;3.90;;;3.10;;
64903;SDS011;51401;48.882;12.598;2023-08-06T04:44:43;5.80;;;2.90;;
64903;SDS011;51401;48.882;12.598;2023-08-06T04:47:09;3.88;;;2.65;;
64903;SDS011;51401;48.882;12.598;2023-08-06T04:49:34;3.00;;;2.70;;
64903;SDS011;51401;48.882;12.598;2023-08-06T04:51:59;3.17;;;2.88;;
64903;SDS011;51401;48.882;12.598;2023-08-06T04:54:25;4.40;;;2.88;;
64903;SDS011;51401;48.882;12.598;2023-08-06T04:56:50;3.45;;;2.92;;
64903;SDS011;51401;48.882;12.598;2023-08-06T04:59:15;3.50;;;3.20;;
64903;SDS011;51401;48.882;12.598;2023-08-06T05:01:40;4.38;;;3.10;;
64903;SDS011;51401;48.882;12.598;2023-08-06T05:04:06;4.38;;;3.22;;
64903;SDS011;51401;48.882;12.598;2023-08-06T05:06:31;3.37;;;2.87;;
64903;SDS011;51401;48.882;12.598;2023-08-06T05:08:56;3.22;;;2.92;;
64903;SDS011;51401;48.882;12.598;2023-08-06T05:11:21;4.40;;;3.30;;
64903;SDS011;51401;48.882;12.598;2023-08-06T05:13:47;2.97;;;2.47;;
64903;SDS011;51401;48.882;12.598;2023-08-06T05:16:12;3.53;;;3.22;;
64903;SDS011;51401;48.882;12.598;2023-08-06T05:18:37;3.57;;;2.97;;
64903;SDS011;51401;48.882;12.598;2023-08-06T05:21:03;3.10;;;2.80;;
64903;SDS011;51401;48.882;12.598;2023-08-06T05:23:29;3.40;;;3.10;;
64903;SDS011;51401;48.882;12.598;2023-08-06T05:25:54;3.50;;;3.20;;
64903;SDS011;51401;48.882;12.598;2023-08-06T05:28:19;4.10;;;2.90;;
64903;SDS011;51401;48.882;12.598;2023-08-06T05:30:44;4.67;;;3.50;;
64903;SDS011;51401;48.882;12.598;2023-08-06T05:33:09;4.80;;;3.73;;
64903;SDS011;51401;48.882;12.598;2023-08-06T05:35:35;4.32;;;3.33;;
64903;SDS011;51401;48.882;12.598;2023-08-06T05:38:00;3.37;;;3.07;;
64903;SDS011;51401;48.882;12.598;2023-08-06T05:40:25;4.13;;;3.33;;
64903;SDS011;51401;48.882;12.598;2023-08-06T05:42:54;5.20;;;3.20;;
64903;SDS011;51401;48.882;12.598;2023-08-06T05:45:19;3.00;;;2.70;;
64903;SDS011;51401;48.882;12.598;2023-08-06T05:47:45;3.30;;;2.90;;
64903;SDS011;51401;48.882;12.598;2023-08-06T05:50:10;3.10;;;2.80;;
64903;SDS011;51401;48.882;12.598;2023-08-06T05:52:36;3.65;;;2.72;;
64903;SDS011;51401;48.882;12.598;2023-08-06T05:55:02;3.40;;;2.88;;
64903;SDS011;51401;48.882;12.598;2023-08-06T05:57:28;4.15;;;2.95;;
64903;SDS011;51401;48.882;12.598;2023-08-06T05:59:53;3.35;;;2.45;;
64903;SDS011;51401;48.882;12.598;2023-08-06T06:02:18;4.30;;;2.57;;
64903;SDS011;51401;48.882;12.598;2023-08-06T06:04:43;2.80;;;2.50;;
64903;SDS011;51401;48.882;12.598;2023-08-06T06:07:09;2.92;;;2.63;;
64903;SDS011;51401;48.882;12.598;2023-08-06T06:09:34;2.53;;;2.10;;
64903;SDS011;51401;48.882;12.598;2023-08-06T06:11:59;2.87;;;2.33;;
64903;SDS011;51401;48.882;12.598;2023-08-06T06:14:25;2.27;;;2.00;;
64903;SDS011;51401;48.882;12.598;2023-08-06T06:16:50;2.87;;;2.10;;
64903;SDS011;51401;48.882;12.598;2023-08-06T06:19:15;2.22;;;2.00;;
64903;SDS011;51401;48.882;12.598;2023-08-06T06:21:40;4.17;;;2.20;;
64903;SDS011;51401;48.882;12.598;2023-08-06T06:24:06;2.90;;;2.20;;
64903;SDS011;51401;48.882;12.598;2023-08-06T06:26:33;2.55;;;2.25;;
64903;SDS011;51401;48.882;12.598;2023-08-06T06:28:58;2.60;;;2.00;;
64903;SDS011;51401;48.882;12.598;2023-08-06T06:31:23;3.42;;;2.10;;
64903;SDS011;51401;48.882;12.598;2023-08-06T06:33:49;2.58;;;1.90;;
64903;SDS011;51401;48.882;12.598;2023-08-06T06:36:14;2.72;;;2.40;;
64903;SDS011;51401;48.882;12.598;2023-08-06T06:38:39;2.20;;;1.73;;
64903;SDS011;51401;48.882;12.598;2023-08-06T06:41:04;2.63;;;1.87;;
64903;SDS011;51401;48.882;12.598;2023-08-06T06:43:30;2.25;;;1.50;;
64903;SDS011;51401;48.882;12.598;2023-08-06T06:45:56;1.92;;;1.65;;
64903;SDS011;51401;48.882;12.598;2023-08-06T06:48:25;2.92;;;1.77;;
64903;SDS011;51401;48.882;12.598;2023-08-06T06:50:52;2.53;;;2.05;;
64903;SDS011;51401;48.882;12.598;2023-08-06T06:53:17;2.45;;;2.10;;
64903;SDS011;51401;48.882;12.598;2023-08-06T06:55:43;2.33;;;2.00;;
64903;SDS011;51401;48.882;12.598;2023-08-06T06:58:08;3.28;;;2.60;;
64903;SDS011;51401;48.882;12.598;2023-08-06T07:00:35;4.10;;;3.40;;
64903;SDS011;51401;48.882;12.598;2023-08-06T07:03:02;3.65;;;3.20;;
64903;SDS011;51401;48.882;12.598;2023-08-06T07:05:27;3.97;;;3.45;;
64903;SDS011;51401;48.882;12.598;2023-08-06T07:07:52;4.72;;;3.67;;
64903;SDS011;51401;48.882;12.598;2023-08-06T07:10:17;3.97;;;3.57;;
64903;SDS011;51401;48.882;12.598;2023-08-06T07:12:43;4.18;;;3.72;;
64903;SDS011;51401;48.882;12.598;2023-08-06T07:15:08;5.80;;;4.63;;
64903;SDS011;51401;48.882;12.598;2023-08-06T07:17:34;6.45;;;5.30;;
64903;SDS011;51401;48.882;12.598;2023-08-06T07:19:59;6.38;;;4.93;;
64903;SDS011;51401;48.882;12.598;2023-08-06T07:22:24;7.13;;;4.97;;
64903;SDS011;51401;48.882;12.598;2023-08-06T07:24:50;6.57;;;5.97;;
64903;SDS011;51401;48.882;12.598;2023-08-06T07:27:15;6.63;;;5.33;;
64903;SDS011;51401;48.882;12.598;2023-08-06T07:29:40;5.63;;;4.97;;
64903;SDS011;51401;48.882;12.598;2023-08-06T07:32:06;5.50;;;4.53;;
64903;SDS011;51401;48.882;12.598;2023-08-06T07:34:32;4.78;;;4.28;;
64903;SDS011;51401;48.882;12.598;2023-08-06T07:36:57;6.38;;;4.13;;
64903;SDS011;51401;48.882;12.598;2023-08-06T07:39:23;5.25;;;3.78;;
64903;SDS011;51401;48.882;12.598;2023-08-06T07:41:48;3.97;;;3.45;;
64903;SDS011;51401;48.882;12.598;2023-08-06T07:44:14;4.70;;;3.65;;
64903;SDS011;51401;48.882;12.598;2023-08-06T07:46:40;3.85;;;3.45;;
64903;SDS011;51401;48.882;12.598;2023-08-06T07:49:05;4.57;;;3.15;;
64903;SDS011;51401;48.882;12.598;2023-08-06T07:51:30;3.30;;;3.00;;
64903;SDS011;51401;48.882;12.598;2023-08-06T07:53:56;3.73;;;2.97;;
64903;SDS011;51401;48.882;12.598;2023-08-06T07:56:21;4.47;;;4.07;;
64903;SDS011;51401;48.882;12.598;2023-08-06T07:58:46;3.10;;;2.80;;
64903;SDS011;51401;48.882;12.598;2023-08-06T08:01:11;3.83;;;2.90;;
64903;SDS011;51401;48.882;12.598;2023-08-06T08:03:37;4.50;;;2.57;;
64903;SDS011;51401;48.882;12.598;2023-08-06T08:06:02;3.75;;;2.17;;
64903;SDS011;51401;48.882;12.598;2023-08-06T08:08:28;2.95;;;2.53;;
64903;SDS011;51401;48.882;12.598;2023-08-06T08:10:53;3.63;;;2.40;;
64903;SDS011;51401;48.882;12.598;2023-08-06T08:13:20;2.40;;;2.15;;
64903;SDS011;51401;48.882;12.598;2023-08-06T08:15:45;3.33;;;2.47;;
64903;SDS011;51401;48.882;12.598;2023-08-06T08:18:10;3.28;;;2.13;;
64903;SDS011;51401;48.882;12.598;2023-08-06T08:20:36;2.70;;;2.20;;
64903;SDS011;51401;48.882;12.598;2023-08-06T08:23:01;2.17;;;1.98;;
64903;SDS011;51401;48.882;12.598;2023-08-06T08:25:27;2.80;;;2.10;;
64903;SDS011;51401;48.882;12.598;2023-08-06T08:27:53;2.63;;;2.30;;
64903;SDS011;51401;48.882;12.598;2023-08-06T08:30:19;2.22;;;2.00;;
64903;SDS011;51401;48.882;12.598;2023-08-06T08:32:45;3.42;;;2.17;;
64903;SDS011;51401;48.882;12.598;2023-08-06T08:35:10;2.37;;;1.93;;
64903;SDS011;51401;48.882;12.598;2023-08-06T08:37:37;2.65;;;1.90;;
64903;SDS011;51401;48.882;12.598;2023-08-06T08:40:03;2.42;;;2.05;;
64903;SDS011;51401;48.882;12.598;2023-08-06T08:42:29;2.70;;;1.80;;
64903;SDS011;51401;48.882;12.598;2023-08-06T08:44:54;3.50;;;2.07;;
64903;SDS011;51401;48.882;12.598;2023-08-06T08:47:20;2.40;;;1.95;;
64903;SDS011;51401;48.882;12.598;2023-08-06T08:49:45;3.20;;;1.80;;
64903;SDS011;51401;48.882;12.598;2023-08-06T08:52:12;2.83;;;2.08;;
64903;SDS011;51401;48.882;12.598;2023-08-06T08:54:41;2.85;;;1.70;;
64903;SDS011;51401;48.882;12.598;2023-08-06T08:57:08;1.67;;;1.30;;
64903;SDS011;51401;48.882;12.598;2023-08-06T08:59:33;2.50;;;2.05;;
64903;SDS011;51401;48.882;12.598;2023-08-06T09:02:00;1.70;;;1.60;;
64903;SDS011;51401;48.882;12.598;2023-08-06T09:04:27;1.70;;;1.30;;
64903;SDS011;51401;48.882;12.598;2023-08-06T09:09:30;3.40;;;1.20;;
64903;SDS011;51401;48.882;12.598;2023-08-06T09:11:59;1.92;;;1.30;;
64903;SDS011;51401;48.882;12.598;2023-08-06T09:14:27;2.35;;;1.50;;
64903;SDS011;51401;48.882;12.598;2023-08-06T09:16:52;2.70;;;1.70;;
64903;SDS011;51401;48.882;12.598;2023-08-06T09:19:18;2.75;;;1.80;;
64903;SDS011;51401;48.882;12.598;2023-08-06T09:21:44;2.38;;;1.50;;
64903;SDS011;51401;48.882;12.598;2023-08-06T09:24:13;2.28;;;1.45;;
64903;SDS011;51401;48.882;12.598;2023-08-06T09:26:40;2.13;;;1.40;;
64903;SDS011;51401;48.882;12.598;2023-08-06T09:29:06;2.17;;;1.55;;
64903;SDS011;51401;48.882;12.598;2023-08-06T09:31:45;3.47;;;1.70;;
64903;SDS011;51401;48.882;12.598;2023-08-06T09:34:11;2.03;;;1.50;;
64903;SDS011;51401;48.882;12.598;2023-08-06T09:36:53;3.03;;;1.60;;
64903;SDS011;51401;48.882;12.598;2023-08-06T09:39:20;1.70;;;1.60;;
64903;SDS011;51401;48.882;12.598;2023-08-06T09:41:47;1.88;;;1.55;;
64903;SDS011;51401;48.882;12.598;2023-08-06T09:44:16;1.95;;;1.40;;
64903;SDS011;51401;48.882;12.598;2023-08-06T09:46:43;1.92;;;1.55;;
64903;SDS011;51401;48.882;12.598;2023-08-06T09:49:11;1.70;;;1.60;;
64903;SDS011;51401;48.882;12.598;2023-08-06T09:51:37;1.67;;;1.40;;
64903;SDS011;51401;48.882;12.598;2023-08-06T09:54:04;2.63;;;1.50;;
64903;SDS011;51401;48.882;12.598;2023-08-06T09:56:32;1.98;;;1.40;;
64903;SDS011;51401;48.882;12.598;2023-08-06T09:59:02;2.42;;;1.63;;
64903;SDS011;51401;48.882;12.598;2023-08-06T10:01:30;2.30;;;1.55;;
64903;SDS011;51401;48.882;12.598;2023-08-06T10:03:56;2.33;;;1.40;;
64903;SDS011;51401;48.882;12.598;2023-08-06T10:06:23;2.53;;;1.40;;
64903;SDS011;51401;48.882;12.598;2023-08-06T10:08:49;1.30;;;1.20;;
64903;SDS011;51401;48.882;12.598;2023-08-06T10:11:15;1.47;;;1.33;;
64903;SDS011;51401;48.882;12.598;2023-08-06T10:13:42;1.40;;;1.20;;
64903;SDS011;51401;48.882;12.598;2023-08-06T10:16:08;1.30;;;1.17;;
64903;SDS011;51401;48.882;12.598;2023-08-06T10:18:35;1.27;;;1.13;;
64903;SDS011;51401;48.882;12.598;2023-08-06T10:21:04;1.42;;;0.98;;
64903;SDS011;51401;48.882;12.598;2023-08-06T10:23:33;3.33;;;1.08;;
64903;SDS011;51401;48.882;12.598;2023-08-06T10:28:36;1.17;;;1.08;;
64903;SDS011;51401;48.882;12.598;2023-08-06T10:31:02;1.00;;;0.90;;
64903;SDS011;51401;48.882;12.598;2023-08-06T10:33:47;1.50;;;0.98;;
64903;SDS011;51401;48.882;12.598;2023-08-06T10:36:13;1.67;;;1.08;;
64903;SDS011;51401;48.882;12.598;2023-08-06T10:38:49;4.20;;;0.80;;
64903;SDS011;51401;48.882;12.598;2023-08-06T10:41:15;0.90;;;0.63;;
64903;SDS011;51401;48.882;12.598;2023-08-06T10:43:43;1.00;;;0.47;;
64903;SDS011;51401;48.882;12.598;2023-08-06T10:46:21;0.60;;;0.40;;
64903;SDS011;51401;48.882;12.598;2023-08-06T10:48:48;0.88;;;0.50;;
64903;SDS011;51401;48.882;12.598;2023-08-06T10:51:14;0.68;;;0.50;;
64903;SDS011;51401;48.882;12.598;2023-08-06T10:53:45;0.60;;;0.30;;
64903;SDS011;51401;48.882;12.598;2023-08-06T10:56:13;1.15;;;0.60;;
64903;SDS011;51401;48.882;12.598;2023-08-06T10:58:42;0.50;;;0.40;;
64903;SDS011;51401;48.882;12.598;2023-08-06T11:01:08;0.57;;;0.50;;
64903;SDS011;51401;48.882;12.598;2023-08-06T11:03:34;0.73;;;0.73;;
64903;SDS011;51401;48.882;12.598;2023-08-06T11:05:59;1.23;;;0.40;;
64903;SDS011;51401;48.882;12.598;2023-08-06T11:08:26;1.05;;;0.55;;
64903;SDS011;51401;48.882;12.598;2023-08-06T11:11:12;0.75;;;0.50;;
64903;SDS011;51401;48.882;12.598;2023-08-06T11:13:38;0.70;;;0.60;;
64903;SDS011;51401;48.882;12.598;2023-08-06T11:16:07;1.00;;;0.60;;
64903;SDS011;51401;48.882;12.598;2023-08-06T11:18:33;1.40;;;0.70;;
64903;SDS011;51401;48.882;12.598;2023-08-06T11:20:59;1.20;;;0.60;;
64903;SDS011;51401;48.882;12.598;2023-08-06T11:23:28;0.98;;;0.70;;
64903;SDS011;51401;48.882;12.598;2023-08-06T11:25:55;2.22;;;1.20;;
64903;SDS011;51401;48.882;12.598;2023-08-06T11:28:21;1.70;;;0.80;;
64903;SDS011;51401;48.882;12.598;2023-08-06T11:30:47;3.50;;;1.30;;
64903;SDS011;51401;48.882;12.598;2023-08-06T11:33:13;1.30;;;0.70;;
64903;SDS011;51401;48.882;12.598;2023-08-06T11:35:38;1.93;;;0.80;;
64903;SDS011;51401;48.882;12.598;2023-08-06T11:38:04;1.15;;;0.80;;
64903;SDS011;51401;48.882;12.598;2023-08-06T11:40:31;2.78;;;0.80;;
64903;SDS011;51401;48.882;12.598;2023-08-06T11:42:57;2.25;;;0.85;;
64903;SDS011;51401;48.882;12.598;2023-08-06T11:45:23;1.35;;;0.60;;
64903;SDS011;51401;48.882;12.598;2023-08-06T11:47:49;1.30;;;0.60;;
64903;SDS011;51401;48.882;12.598;2023-08-06T11:50:23;1.17;;;0.70;;
64903;SDS011;51401;48.882;12.598;2023-08-06T11:52:52;0.60;;;0.60;;
64903;SDS011;51401;48.882;12.598;2023-08-06T11:55:22;1.42;;;0.60;;
64903;SDS011;51401;48.882;12.598;2023-08-06T11:57:48;0.60;;;0.60;;
64903;SDS011;51401;48.882;12.598;2023-08-06T12:00:13;0.60;;;0.60;;
64903;SDS011;51401;48.882;12.598;2023-08-06T12:02:40;1.83;;;1.10;;
64903;SDS011;51401;48.882;12.598;2023-08-06T12:07:36;1.23;;;0.70;;
64903;SDS011;51401;48.882;12.598;2023-08-06T12:10:03;2.97;;;0.85;;
64903;SDS011;51401;48.882;12.598;2023-08-06T12:12:29;0.77;;;0.50;;
64903;SDS011;51401;48.882;12.598;2023-08-06T12:14:55;1.67;;;0.45;;
64903;SDS011;51401;48.882;12.598;2023-08-06T12:17:21;0.60;;;0.45;;
64903;SDS011;51401;48.882;12.598;2023-08-06T12:19:47;1.15;;;0.40;;
64903;SDS011;51401;48.882;12.598;2023-08-06T12:22:12;0.82;;;0.40;;
64903;SDS011;51401;48.882;12.598;2023-08-06T12:24:39;1.23;;;0.50;;
64903;SDS011;51401;48.882;12.598;2023-08-06T12:27:05;1.63;;;0.65;;
64903;SDS011;51401;48.882;12.598;2023-08-06T12:29:30;3.45;;;0.50;;
64903;SDS011;51401;48.882;12.598;2023-08-06T12:31:56;0.30;;;0.30;;
64903;SDS011;51401;48.882;12.598;2023-08-06T12:34:21;1.00;;;0.40;;
64903;SDS011;51401;48.882;12.598;2023-08-06T12:36:47;0.90;;;0.55;;
64903;SDS011;51401;48.882;12.598;2023-08-06T12:39:12;0.77;;;0.40;;
64903;SDS011;51401;48.882;12.598;2023-08-06T12:41:38;0.55;;;0.30;;
64903;SDS011;51401;48.882;12.598;2023-08-06T12:44:03;1.27;;;0.50;;
64903;SDS011;51401;48.882;12.598;2023-08-06T12:46:28;2.13;;;0.63;;
64903;SDS011;51401;48.882;12.598;2023-08-06T12:48:54;0.43;;;0.30;;
64903;SDS011;51401;48.882;12.598;2023-08-06T12:51:19;0.77;;;0.50;;
64903;SDS011;51401;48.882;12.598;2023-08-06T12:53:44;0.40;;;0.40;;
64903;SDS011;51401;48.882;12.598;2023-08-06T12:56:09;1.40;;;0.37;;
64903;SDS011;51401;48.882;12.598;2023-08-06T12:58:35;1.23;;;0.30;;
64903;SDS011;51401;48.882;12.598;2023-08-06T13:01:00;1.00;;;0.20;;
64903;SDS011;51401;48.882;12.598;2023-08-06T13:03:25;0.85;;;0.57;;
64903;SDS011;51401;48.882;12.598;2023-08-06T13:05:51;0.40;;;0.40;;
64903;SDS011;51401;48.882;12.598;2023-08-06T13:08:17;0.20;;;0.20;;
64903;SDS011;51401;48.882;12.598;2023-08-06T13:10:42;0.52;;;0.35;;
64903;SDS011;51401;48.882;12.598;2023-08-06T13:13:07;0.85;;;0.32;;
64903;SDS011;51401;48.882;12.598;2023-08-06T13:15:35;0.30;;;0.30;;
64903;SDS011;51401;48.882;12.598;2023-08-06T13:18:00;0.40;;;0.30;;
64903;SDS011;51401;48.882;12.598;2023-08-06T13:20:25;0.80;;;0.40;;
64903;SDS011;51401;48.882;12.598;2023-08-06T13:22:50;0.30;;;0.30;;
64903;SDS011;51401;48.882;12.598;2023-08-06T13:25:18;0.47;;;0.40;;
64903;SDS011;51401;48.882;12.598;2023-08-06T13:27:44;0.60;;;0.50;;
64903;SDS011;51401;48.882;12.598;2023-08-06T13:30:10;0.70;;;0.30;;
64903;SDS011;51401;48.882;12.598;2023-08-06T13:32:36;1.15;;;0.40;;
64903;SDS011;51401;48.882;12.598;2023-08-06T13:35:02;0.82;;;0.30;;
64903;SDS011;51401;48.882;12.598;2023-08-06T13:37:29;0.45;;;0.40;;
64903;SDS011;51401;48.882;12.598;2023-08-06T13:39:54;0.40;;;0.30;;
64903;SDS011;51401;48.882;12.598;2023-08-06T13:42:19;1.67;;;0.40;;
64903;SDS011;51401;48.882;12.598;2023-08-06T13:44:45;0.40;;;0.40;;
64903;SDS011;51401;48.882;12.598;2023-08-06T13:47:10;0.40;;;0.33;;
64903;SDS011;51401;48.882;12.598;2023-08-06T13:49:35;0.32;;;0.30;;
64903;SDS011;51401;48.882;12.598;2023-08-06T13:52:01;0.80;;;0.40;;
64903;SDS011;51401;48.882;12.598;2023-08-06T13:54:26;0.70;;;0.52;;
64903;SDS011;51401;48.882;12.598;2023-08-06T13:56:51;0.30;;;0.30;;
64903;SDS011;51401;48.882;12.598;2023-08-06T13:59:18;0.73;;;0.30;;
64903;SDS011;51401;48.882;12.598;2023-08-06T14:01:44;0.55;;;0.40;;
64903;SDS011;51401;48.882;12.598;2023-08-06T14:04:10;0.90;;;0.40;;
64903;SDS011;51401;48.882;12.598;2023-08-06T14:06:35;0.40;;;0.32;;
64903;SDS011;51401;48.882;12.598;2023-08-06T14:09:01;0.52;;;0.32;;
64903;SDS011;51401;48.882;12.598;2023-08-06T14:11:26;0.40;;;0.40;;
64903;SDS011;51401;48.882;12.598;2023-08-06T14:13:52;0.30;;;0.30;;
64903;SDS011;51401;48.882;12.598;2023-08-06T14:16:17;0.28;;;0.25;;
64903;SDS011;51401;48.882;12.598;2023-08-06T14:18:43;0.20;;;0.20;;
64903;SDS011;51401;48.882;12.598;2023-08-06T14:21:08;0.20;;;0.20;;
64903;SDS011;51401;48.882;12.598;2023-08-06T14:23:33;0.32;;;0.30;;
64903;SDS011;51401;48.882;12.598;2023-08-06T14:25:59;0.25;;;0.25;;
64903;SDS011;51401;48.882;12.598;2023-08-06T14:28:24;0.43;;;0.20;;
64903;SDS011;51401;48.882;12.598;2023-08-06T14:30:49;0.55;;;0.30;;
64903;SDS011;51401;48.882;12.598;2023-08-06T14:33:15;0.52;;;0.30;;
64903;SDS011;51401;48.882;12.598;2023-08-06T14:35:40;0.30;;;0.30;;
64903;SDS011;51401;48.882;12.598;2023-08-06T14:38:05;3.80;;;0.67;;
64903;SDS011;51401;48.882;12.598;2023-08-06T14:40:30;0.77;;;0.30;;
64903;SDS011;51401;48.882;12.598;2023-08-06T14:43:00;0.30;;;0.30;;
64903;SDS011;51401;48.882;12.598;2023-08-06T14:45:26;0.50;;;0.40;;